Time;durP1;ratioP1;P1;durP2;ratioP2;P2;SDS_P1;SDS_P2;PMS_P1;PMS_P2;Temp;Humidity;BMP_temperature;BMP_pressure;BME280_temperature;BME280_humidity;BME280_pressure;Samples;Min_cycle;Max_cycle;Signal;HPM_P1;HPM_P2
2021/05/20 00:01:42;;;;;;;2.13;1.58;;;;;;;18.09;100.00;100239.31;4919711;29;20123;-77
2021/05/20 00:04:28;;;;;;;3.13;2.10;;;;;;;18.29;100.00;100233.75;4919564;29;20058;-78
2021/05/20 00:07:14;;;;;;;3.53;2.33;;;;;;;18.32;100.00;100236.22;4919649;29;20063;-78
2021/05/20 00:09:59;;;;;;;6.80;5.20;;;;;;;18.43;100.00;100230.34;4920097;29;20020;-76
2021/05/20 00:12:45;;;;;;;5.65;2.50;;;;;;;17.98;100.00;100223.16;4906751;29;20472;-76
2021/05/20 00:15:31;;;;;;;3.28;2.45;;;;;;;18.21;100.00;100216.56;4919299;29;20055;-75
2021/05/20 00:18:17;;;;;;;4.05;2.50;;;;;;;17.67;100.00;100223.13;4906514;29;20024;-73
2021/05/20 00:21:03;;;;;;;3.63;2.38;;;;;;;17.63;100.00;100218.94;4919878;29;20043;-74
2021/05/20 00:23:49;;;;;;;7.57;2.83;;;;;;;17.28;100.00;100216.44;4919353;29;20028;-74
2021/05/20 00:26:35;;;;;;;4.80;2.70;;;;;;;17.44;100.00;100212.06;4906422;29;20378;-73
2021/05/20 00:29:21;;;;;;;4.35;2.70;;;;;;;17.74;100.00;100213.91;4906476;29;20118;-74
2021/05/20 00:32:07;;;;;;;7.72;2.70;;;;;;;17.91;100.00;100226.22;4919525;29;20032;-75
2021/05/20 00:34:54;;;;;;;3.35;2.50;;;;;;;18.03;100.00;100218.44;4906257;29;20087;-73
2021/05/20 00:37:40;;;;;;;4.72;2.90;;;;;;;18.00;100.00;100217.75;4918188;29;20024;-74
2021/05/20 00:40:26;;;;;;;4.63;2.50;;;;;;;17.87;100.00;100222.88;4905561;29;20028;-73
2021/05/20 00:43:11;;;;;;;4.82;2.13;;;;;;;17.93;100.00;100233.13;4919404;29;20029;-74
2021/05/20 00:45:57;;;;;;;3.63;2.33;;;;;;;17.95;100.00;100246.31;4906030;29;20115;-74
2021/05/20 00:48:43;;;;;;;4.07;2.25;;;;;;;17.48;100.00;100266.59;4919825;29;20095;-74
2021/05/20 00:51:29;;;;;;;4.03;2.50;;;;;;;17.63;100.00;100269.25;4919198;29;20020;-73
2021/05/20 00:54:15;;;;;;;5.03;2.63;;;;;;;17.85;100.00;100272.47;4918453;29;20028;-73
2021/05/20 00:57:03;;;;;;;9.43;2.50;;;;;;;17.89;100.00;100278.47;4906119;29;20040;-73
2021/05/20 00:59:49;;;;;;;6.78;2.55;;;;;;;17.83;100.00;100273.47;4906587;29;20032;-74
2021/05/20 01:02:37;;;;;;;3.70;2.30;;;;;;;17.08;100.00;100267.72;4906096;29;20103;-73
2021/05/20 01:05:23;;;;;;;4.85;2.45;;;;;;;17.04;100.00;100257.41;4919609;29;20031;-72
2021/05/20 01:08:09;;;;;;;4.72;2.35;;;;;;;17.17;100.00;100256.69;4904771;29;20052;-73
2021/05/20 01:10:55;;;;;;;4.43;2.50;;;;;;;17.48;100.00;100256.81;4918396;29;20055;-73
2021/05/20 01:13:41;;;;;;;5.05;2.47;;;;;;;17.68;100.00;100269.03;4918840;29;20031;-74
2021/05/20 01:16:26;;;;;;;5.13;2.65;;;;;;;17.63;100.00;100282.50;4918285;29;20028;-73
2021/05/20 01:19:13;;;;;;;3.85;2.80;;;;;;;18.11;100.00;100279.88;4918294;29;20103;-74
2021/05/20 01:21:58;;;;;;;4.00;2.58;;;;;;;18.23;100.00;100270.38;4918099;29;20025;-76
2021/05/20 01:24:45;;;;;;;3.70;2.55;;;;;;;18.29;100.00;100265.56;4918798;29;20028;-75
2021/05/20 01:27:31;;;;;;;3.35;2.40;;;;;;;17.98;100.00;100260.28;4918272;29;20388;-75
2021/05/20 01:30:17;;;;;;;5.75;2.60;;;;;;;18.18;100.00;100256.50;4904999;29;20497;-75
2021/05/20 01:33:03;;;;;;;4.30;2.50;;;;;;;17.99;100.00;100238.13;4918188;29;20092;-75
2021/05/20 01:35:49;;;;;;;4.82;2.40;;;;;;;17.86;100.00;100234.44;4918250;29;20032;-75
2021/05/20 01:41:24;;;;;;;4.45;2.45;;;;;;;18.11;100.00;100215.38;4919072;29;20024;-75
2021/05/20 01:44:10;;;;;;;2.80;2.10;;;;;;;18.12;100.00;100231.19;4917908;29;20119;-76
2021/05/20 01:46:56;;;;;;;5.03;2.20;;;;;;;18.35;100.00;100224.63;4918044;29;20074;-75
2021/05/20 01:49:49;;;;;;;3.15;2.60;;;;;;;17.76;100.00;100259.72;4905636;29;20035;-75
2021/05/20 01:52:34;;;;;;;2.78;2.47;;;;;;;17.96;100.00;100278.03;4921799;29;20028;-76
2021/05/20 01:55:20;;;;;;;3.70;2.72;;;;;;;17.73;100.00;100299.63;4909380;29;20028;-75
2021/05/20 01:58:06;;;;;;;3.22;2.63;;;;;;;18.03;100.00;100303.28;4921684;29;20036;-75
2021/05/20 02:00:52;;;;;;;4.88;2.70;;;;;;;17.92;100.00;100310.97;4908936;29;20042;-75
2021/05/20 02:03:38;;;;;;;3.28;2.60;;;;;;;18.12;100.00;100323.13;4908868;29;20036;-75
2021/05/20 02:06:25;;;;;;;3.72;2.65;;;;;;;17.82;100.00;100324.78;4922235;29;20464;-75
2021/05/20 02:09:10;;;;;;;5.03;2.75;;;;;;;18.07;100.00;100319.88;4921570;29;20123;-75
2021/05/20 02:11:56;;;;;;;3.72;3.25;;;;;;;17.88;100.00;100288.22;4921985;29;20092;-75
2021/05/20 02:14:42;;;;;;;3.38;2.85;;;;;;;17.50;100.00;100251.44;4921870;29;20449;-75
2021/05/20 02:17:28;;;;;;;5.80;3.30;;;;;;;17.30;100.00;100257.78;4921607;29;20032;-75
2021/05/20 02:20:14;;;;;;;6.45;3.47;;;;;;;17.22;100.00;100278.50;4921824;29;20036;-75
2021/05/20 02:23:00;;;;;;;5.22;3.60;;;;;;;17.51;100.00;100293.75;4908781;29;20024;-76
2021/05/20 02:25:46;;;;;;;5.72;3.92;;;;;;;17.40;100.00;100290.78;4921804;29;20032;-75
2021/05/20 02:28:32;;;;;;;6.45;4.38;;;;;;;17.16;100.00;100280.59;4921107;29;20114;-75
2021/05/20 02:31:18;;;;;;;3.90;3.50;;;;;;;16.92;100.00;100271.25;4908504;29;20066;-76
2021/05/20 02:34:04;;;;;;;6.38;4.13;;;;;;;17.27;100.00;100255.28;4920764;29;20064;-75
2021/05/20 02:36:51;;;;;;;7.20;4.30;;;;;;;17.02;100.00;100249.53;4921369;29;20472;-74
2021/05/20 02:39:37;;;;;;;8.10;4.20;;;;;;;16.71;100.00;100254.66;4921212;29;20039;-74
2021/05/20 02:42:23;;;;;;;6.78;4.30;;;;;;;16.87;100.00;100260.03;4920900;29;20036;-75
2021/05/20 02:45:12;;;;;;;9.45;4.45;;;;;;;16.84;100.00;100262.84;4920899;29;20032;-75
2021/05/20 02:47:57;;;;;;;6.28;4.63;;;;;;;16.96;100.00;100263.06;4908096;29;20047;-75
2021/05/20 02:50:43;;;;;;;8.77;5.47;;;;;;;16.74;100.00;100275.66;4908232;29;20413;-75
2021/05/20 02:53:29;;;;;;;6.85;5.43;;;;;;;16.86;100.00;100272.41;4920973;29;20020;-75
2021/05/20 02:56:15;;;;;;;8.00;5.57;;;;;;;17.01;100.00;100284.00;4920569;29;20366;-74
2021/05/20 02:59:01;;;;;;;7.68;5.47;;;;;;;16.51;100.00;100296.25;4921155;29;20048;-74
2021/05/20 03:01:47;;;;;;;8.18;5.22;;;;;;;16.79;100.00;100289.50;4920786;29;20044;-74
2021/05/20 03:04:37;;;;;;;6.93;5.57;;;;;;;16.33;100.00;100294.44;4907519;29;20028;-75
2021/05/20 03:07:23;;;;;;;6.85;5.53;;;;;;;16.62;100.00;100296.56;4907819;29;20389;-76
2021/05/20 03:10:09;;;;;;;7.57;5.50;;;;;;;16.83;100.00;100287.56;4907443;29;20024;-75
2021/05/20 03:12:55;;;;;;;7.65;6.78;;;;;;;16.69;100.00;100296.22;4920426;29;20382;-75
2021/05/20 03:15:41;;;;;;;8.40;5.85;;;;;;;16.68;100.00;100288.34;4907426;29;20063;-75
2021/05/20 03:18:27;;;;;;;7.28;6.10;;;;;;;16.79;100.00;100286.00;4907836;29;20095;-74
2021/05/20 03:21:13;;;;;;;9.00;6.47;;;;;;;16.59;100.00;100302.84;4907412;29;20032;-75
2021/05/20 03:23:59;;;;;;;8.95;6.82;;;;;;;16.58;100.00;100305.56;4920345;29;20040;-75
2021/05/20 03:26:44;;;;;;;7.82;6.90;;;;;;;16.56;100.00;100284.50;4920181;29;20024;-75
2021/05/20 03:29:30;;;;;;;11.40;7.50;;;;;;;16.42;100.00;100296.66;4920428;29;20115;-75
2021/05/20 03:32:16;;;;;;;9.60;7.35;;;;;;;16.34;100.00;100310.22;4919817;29;20398;-75
2021/05/20 03:35:02;;;;;;;8.77;7.20;;;;;;;16.46;100.00;100316.75;4920062;29;20032;-74
2021/05/20 03:37:48;;;;;;;11.10;8.15;;;;;;;16.54;100.00;100322.53;4920278;29;20047;-75
2021/05/20 03:40:34;;;;;;;10.98;7.40;;;;;;;16.36;100.00;100323.38;4919625;29;20457;-75
2021/05/20 03:43:19;;;;;;;11.63;7.32;;;;;;;16.45;100.00;100322.97;4920122;29;20051;-75
2021/05/20 03:46:06;;;;;;;11.45;7.53;;;;;;;16.52;100.00;100332.34;4919521;29;20027;-75
2021/05/20 03:48:52;;;;;;;9.43;7.20;;;;;;;16.33;100.00;100337.59;4907352;29;20114;-75
2021/05/20 03:51:38;;;;;;;9.75;8.13;;;;;;;16.42;100.00;100321.34;4919587;29;20111;-75
2021/05/20 03:54:24;;;;;;;7.90;6.15;;;;;;;16.50;100.00;100307.72;4919947;29;20509;-75
2021/05/20 03:57:10;;;;;;;8.00;6.43;;;;;;;16.20;100.00;100312.66;4906531;29;20441;-76
2021/05/20 03:59:56;;;;;;;12.20;7.43;;;;;;;16.35;100.00;100311.94;4905514;29;20039;-75
2021/05/20 04:02:42;;;;;;;8.38;7.30;;;;;;;15.93;100.00;100308.66;4905307;29;20031;-75
2021/05/20 04:05:27;;;;;;;11.57;7.30;;;;;;;15.78;100.00;100317.25;4919813;29;20035;-75
2021/05/20 04:08:13;;;;;;;8.23;6.97;;;;;;;15.64;100.00;100321.44;4906349;29;20458;-75
2021/05/20 04:10:59;;;;;;;10.52;7.90;;;;;;;15.77;100.00;100344.63;4905249;29;20362;-76
2021/05/20 04:13:44;;;;;;;10.95;7.72;;;;;;;15.72;100.00;100343.09;4918242;29;20024;-75
2021/05/20 04:16:30;;;;;;;16.08;10.38;;;;;;;15.72;100.00;100358.94;4906028;29;20469;-75
2021/05/20 04:19:16;;;;;;;9.98;7.38;;;;;;;15.76;100.00;100364.03;4906534;29;20106;-75
2021/05/20 04:22:02;;;;;;;9.93;6.80;;;;;;;15.64;100.00;100364.56;4918630;29;20040;-75
2021/05/20 04:24:48;;;;;;;10.43;7.72;;;;;;;15.83;100.00;100368.09;4919291;29;20032;-75
2021/05/20 04:27:34;;;;;;;9.77;7.35;;;;;;;16.09;100.00;100370.44;4905901;29;20442;-76
2021/05/20 04:30:20;;;;;;;10.50;7.70;;;;;;;15.91;100.00;100376.53;4906272;29;20386;-76
2021/05/20 04:33:06;;;;;;;8.88;7.57;;;;;;;15.45;100.00;100374.19;4905869;29;20028;-75
2021/05/20 04:35:52;;;;;;;11.65;6.72;;;;;;;15.59;100.00;100385.00;4906493;29;20043;-76
2021/05/20 04:38:38;;;;;;;13.23;8.32;;;;;;;15.61;100.00;100385.81;4918573;29;20032;-75
2021/05/20 04:41:24;;;;;;;11.48;7.45;;;;;;;15.49;100.00;100381.06;4918712;29;20031;-75
2021/05/20 04:44:10;;;;;;;12.02;8.13;;;;;;;15.81;100.00;100375.25;4918284;29;20035;-75
2021/05/20 04:46:56;;;;;;;9.88;7.78;;;;;;;15.56;100.00;100353.50;4905112;29;20032;-75
2021/05/20 04:49:41;;;;;;;13.18;8.90;;;;;;;15.52;100.00;100333.41;4918610;29;20103;-75
2021/05/20 04:52:27;;;;;;;9.55;7.65;;;;;;;15.45;100.00;100333.72;4905312;29;20471;-75
2021/05/20 04:55:15;;;;;;;11.73;8.23;;;;;;;15.36;100.00;100326.22;4905617;29;20038;-75
2021/05/20 04:58:01;;;;;;;13.63;8.05;;;;;;;15.43;100.00;100333.78;4918656;29;20059;-75
2021/05/20 05:00:49;;;;;;;11.63;8.25;;;;;;;15.46;100.00;100338.94;4918273;29;20040;-75
2021/05/20 05:03:35;;;;;;;11.30;7.45;;;;;;;15.73;100.00;100342.16;4918047;29;20024;-75
2021/05/20 05:06:22;;;;;;;12.60;8.77;;;;;;;15.58;100.00;100340.19;4918361;29;20060;-75
2021/05/20 05:09:07;;;;;;;12.63;8.20;;;;;;;15.72;100.00;100341.31;4917841;29;20056;-76
2021/05/20 05:11:53;;;;;;;9.32;7.20;;;;;;;15.41;100.00;100340.94;4918318;29;20051;-75
2021/05/20 05:14:39;;;;;;;7.22;6.28;;;;;;;15.54;100.00;100338.59;4919062;29;20028;-75
2021/05/20 05:17:25;;;;;;;7.95;7.15;;;;;;;15.81;100.00;100334.75;4905397;29;20067;-75
2021/05/20 05:20:11;;;;;;;10.07;7.60;;;;;;;15.80;100.00;100330.41;4918316;29;20036;-75
2021/05/20 05:22:57;;;;;;;7.70;6.93;;;;;;;15.69;100.00;100330.03;4918452;29;20074;-76
2021/05/20 05:25:43;;;;;;;7.75;6.80;;;;;;;15.64;100.00;100324.09;4917613;29;20357;-76
2021/05/20 05:28:28;;;;;;;7.97;5.90;;;;;;;15.51;100.00;100321.13;4917781;29;20028;-76
2021/05/20 05:31:17;;;;;;;8.75;6.88;;;;;;;15.50;100.00;100323.81;4917961;29;20358;-76
2021/05/20 05:34:03;;;;;;;10.57;5.95;;;;;;;15.66;100.00;100330.16;4917698;29;20369;-77
2021/05/20 05:36:49;;;;;;;9.38;7.07;;;;;;;16.01;100.00;100343.50;4919966;29;20353;-75
2021/05/20 05:39:35;;;;;;;11.60;7.10;;;;;;;15.97;100.00;100352.50;4904708;29;20469;-75
2021/05/20 05:42:21;;;;;;;9.35;6.97;;;;;;;15.84;100.00;100354.00;4917985;29;20052;-76
2021/05/20 05:45:07;;;;;;;11.32;7.40;;;;;;;16.11;100.00;100359.81;4917613;29;20024;-76
2021/05/20 05:47:53;;;;;;;10.93;7.82;;;;;;;16.32;100.00;100362.31;4917815;29;20099;-75
2021/05/20 05:50:39;;;;;;;8.60;5.70;;;;;;;15.89;100.00;100357.28;4918072;29;20083;-75
2021/05/20 05:53:26;;;;;;;7.90;6.38;;;;;;;15.77;100.00;100352.53;4917512;29;20458;-75
2021/05/20 05:56:12;;;;;;;7.65;5.85;;;;;;;15.79;100.00;100347.19;4904947;29;20457;-75
2021/05/20 05:58:57;;;;;;;7.03;5.57;;;;;;;15.89;100.00;100344.06;4917366;29;20036;-76
2021/05/20 06:01:45;;;;;;;9.00;6.65;;;;;;;16.13;100.00;100344.72;4918095;29;20135;-76
2021/05/20 06:04:31;;;;;;;8.57;6.03;;;;;;;16.06;100.00;100338.88;4918229;29;20043;-76
2021/05/20 06:07:17;;;;;;;8.07;6.28;;;;;;;16.13;100.00;100342.09;4905022;29;20056;-76
2021/05/20 06:10:05;;;;;;;7.57;5.80;;;;;;;16.13;100.00;100340.31;4904386;29;20033;-74
2021/05/20 06:12:51;;;;;;;6.63;5.18;;;;;;;16.00;100.00;100330.38;4917234;29;20461;-73
2021/05/20 06:15:36;;;;;;;9.13;7.28;;;;;;;16.26;100.00;100338.81;4917419;29;20056;-73
2021/05/20 06:18:22;;;;;;;8.07;5.88;;;;;;;16.21;100.00;100337.31;4917359;29;20473;-73
2021/05/20 06:21:08;;;;;;;9.48;6.85;;;;;;;16.45;100.00;100346.75;4917961;29;20094;-74
2021/05/20 06:23:54;;;;;;;6.78;6.05;;;;;;;15.94;100.00;100342.06;4904469;29;20028;-73
2021/05/20 06:26:40;;;;;;;7.60;5.53;;;;;;;15.87;100.00;100326.56;4917594;29;20128;-74
2021/05/20 06:29:25;;;;;;;5.88;5.22;;;;;;;15.91;100.00;100331.63;4916634;29;20172;-74
2021/05/20 06:32:11;;;;;;;7.70;5.50;;;;;;;16.15;100.00;100335.78;4917847;29;20446;-73
2021/05/20 06:34:57;;;;;;;8.88;6.18;;;;;;;16.35;100.00;100333.09;4916799;29;20354;-73
2021/05/20 06:37:43;;;;;;;8.65;5.78;;;;;;;16.30;100.00;100335.09;4921058;29;20028;-74
2021/05/20 06:40:29;;;;;;;8.27;6.45;;;;;;;16.56;100.00;100337.38;4920531;29;20115;-76
2021/05/20 06:43:15;;;;;;;8.25;6.00;;;;;;;16.38;100.00;100338.22;4920753;29;20454;-76
2021/05/20 06:46:07;;;;;;;7.07;5.00;;;;;;;16.68;100.00;100326.22;4920298;29;20035;-75
2021/05/20 06:48:54;;;;;;;8.45;5.32;;;;;;;16.63;100.00;100320.28;4906699;29;20039;-76
2021/05/20 06:51:40;;;;;;;7.82;5.47;;;;;;;16.65;100.00;100310.50;4921558;29;20020;-75
2021/05/20 06:54:26;;;;;;;10.30;6.03;;;;;;;16.54;100.00;100317.22;4920490;29;20031;-75
2021/05/20 06:57:25;;;;;;;8.27;6.40;;;;;;;16.38;100.00;100305.63;4920425;29;20418;-73
2021/05/20 07:00:11;;;;;;;8.20;6.47;;;;;;;16.56;100.00;100312.75;4920946;29;20043;-75
2021/05/20 07:02:57;;;;;;;6.95;6.20;;;;;;;16.80;100.00;100304.44;4907934;29;20036;-74
2021/05/20 07:05:43;;;;;;;9.07;6.10;;;;;;;16.50;100.00;100310.38;4920935;29;20047;-75
2021/05/20 07:08:29;;;;;;;6.95;5.63;;;;;;;16.48;100.00;100293.75;4907221;29;20086;-72
2021/05/20 07:11:14;;;;;;;8.00;6.38;;;;;;;16.86;100.00;100306.81;4920440;29;20024;-72
2021/05/20 07:14:00;;;;;;;7.60;6.30;;;;;;;17.68;100.00;100301.66;4920612;29;20123;-73
2021/05/20 07:16:46;;;;;;;7.05;5.75;;;;;;;17.22;100.00;100286.44;4907218;29;20035;-73
2021/05/20 07:19:33;;;;;;;5.55;4.80;;;;;;;17.23;100.00;100276.69;4921414;29;20028;-73
2021/05/20 07:22:22;;;;;;;7.93;4.35;;;;;;;18.20;100.00;100282.00;4920202;29;20060;-73
2021/05/20 07:25:08;;;;;;;4.90;4.40;;;;;;;18.18;100.00;100280.38;4920107;29;20024;-72
2021/05/20 07:27:54;;;;;;;4.93;4.28;;;;;;;17.70;100.00;100288.34;4907041;29;20035;-72
2021/05/20 07:30:40;;;;;;;5.40;3.97;;;;;;;16.86;100.00;100305.94;4919890;29;20123;-75
2021/05/20 07:33:27;;;;;;;5.13;4.22;;;;;;;16.78;100.00;100313.41;4919984;29;20024;-76
2021/05/20 07:36:13;;;;;;;5.03;4.22;;;;;;;16.97;100.00;100312.44;4919774;29;20070;-76
2021/05/20 07:39:00;;;;;;;7.03;4.72;;;;;;;17.06;100.00;100314.63;4919670;29;20032;-76
2021/05/20 07:41:48;;;;;;;5.60;4.75;;;;;;;16.99;100.00;100325.56;4919554;29;20029;-76
2021/05/20 07:44:36;;;;;;;7.05;4.90;;;;;;;17.35;100.00;100326.34;4920185;29;20062;-76
2021/05/20 07:47:22;;;;;;;5.88;5.00;;;;;;;17.61;100.00;100342.66;4918841;29;20337;-75
2021/05/20 07:50:09;;;;;;;4.65;4.20;;;;;;;17.01;100.00;100347.53;4920227;29;20461;-76
2021/05/20 07:52:55;;;;;;;4.97;4.40;;;;;;;17.17;100.00;100337.91;4906306;29;20107;-76
2021/05/20 07:55:41;;;;;;;6.85;4.38;;;;;;;17.25;100.00;100327.78;4906586;29;20036;-77
2021/05/20 07:58:28;;;;;;;5.68;4.35;;;;;;;17.61;100.00;100315.31;4906450;29;20035;-76
2021/05/20 08:01:14;;;;;;;7.05;5.05;;;;;;;17.57;100.00;100296.06;4906544;29;20075;-76
2021/05/20 08:04:08;;;;;;;5.55;4.20;;;;;;;17.60;100.00;100290.63;4919022;29;20050;-75
2021/05/20 08:07:01;;;;;;;5.07;4.45;;;;;;;17.69;100.00;100284.81;4905910;29;20056;-75
2021/05/20 08:10:05;;;;;;;4.90;4.40;;;;;;;17.90;100.00;100283.69;4906400;29;20039;-75
2021/05/20 08:12:51;;;;;;;4.57;3.50;;;;;;;17.92;100.00;100284.44;4906108;29;20043;-76
2021/05/20 08:15:37;;;;;;;5.95;4.28;;;;;;;18.04;100.00;100288.22;4919525;29;20039;-77
2021/05/20 08:18:23;;;;;;;5.10;3.80;;;;;;;17.88;100.00;100303.28;4919438;29;20032;-76
2021/05/20 08:21:19;;;;;;;;;;;;;;;;;;;;;
2021/05/20 08:24:09;;;;;;;6.68;3.75;;;;;;;17.92;100.00;100315.41;4918244;29;20084;-76
2021/05/20 08:26:54;;;;;;;3.95;3.45;;;;;;;18.16;100.00;100314.06;4919018;29;20051;-76
2021/05/20 08:29:41;;;;;;;3.45;3.15;;;;;;;18.32;100.00;100313.16;4919552;29;20032;-76
2021/05/20 08:32:27;;;;;;;3.80;2.80;;;;;;;18.91;100.00;100307.13;4906248;29;20074;-76
2021/05/20 08:35:14;;;;;;;4.10;3.03;;;;;;;18.69;100.00;100310.16;4918833;29;20038;-76
2021/05/20 08:38:00;;;;;;;4.65;3.17;;;;;;;18.65;100.00;100307.78;4918742;29;20052;-76
2021/05/20 08:40:46;;;;;;;3.10;2.80;;;;;;;18.92;100.00;100306.19;4905384;29;20533;-76
2021/05/20 08:43:34;;;;;;;5.07;3.10;;;;;;;18.96;100.00;100315.69;4918668;29;20067;-76
2021/05/20 08:46:24;;;;;;;3.50;3.20;;;;;;;19.01;100.00;100322.44;4918264;29;20028;-76
2021/05/20 08:49:20;;;;;;;6.78;3.10;;;;;;;18.50;100.00;100324.56;4918481;29;20043;-76
2021/05/20 08:52:06;;;;;;;3.70;3.30;;;;;;;18.65;100.00;100323.72;4905641;29;20062;-76
2021/05/20 08:54:52;;;;;;;4.35;2.65;;;;;;;18.58;100.00;100312.56;4918273;29;20027;-75
2021/05/20 08:57:38;;;;;;;3.33;2.90;;;;;;;18.15;100.00;100310.56;4918424;29;20118;-76
2021/05/20 09:00:27;;;;;;;3.75;3.10;;;;;;;18.34;100.00;100311.31;4918280;29;20118;-75
2021/05/20 09:03:14;;;;;;;9.30;6.60;;;;;;;18.48;100.00;100310.50;4918785;29;20055;-75
2021/05/20 09:06:04;;;;;;;7.15;3.35;;;;;;;18.55;100.00;100310.09;4905596;29;20445;-76
2021/05/20 09:08:50;;;;;;;3.10;2.72;;;;;;;18.84;100.00;100311.09;4905304;29;20052;-75
2021/05/20 09:11:47;;;;;;;3.97;2.90;;;;;;;19.11;100.00;100313.00;4905922;29;20075;-76
2021/05/20 09:14:40;;;;;;;3.30;3.00;;;;;;;19.88;100.00;100310.97;4919379;29;20127;-76
2021/05/20 09:17:28;;;;;;;2.78;2.55;;;;;;;20.39;100.00;100313.06;4918845;29;20064;-76
2021/05/20 09:20:15;;;;;;;6.32;3.40;;;;;;;20.06;100.00;100308.97;4905425;29;20450;-76
2021/05/20 09:23:19;;;;;;;5.97;3.38;;;;;;;20.28;100.00;100310.22;4905040;29;20111;-76
2021/05/20 09:26:07;;;;;;;4.10;3.08;;;;;;;20.50;100.00;100323.88;4918104;29;20361;-75
2021/05/20 09:28:52;;;;;;;5.15;3.05;;;;;;;21.03;100.00;100321.28;4917862;29;20039;-76
2021/05/20 09:31:46;;;;;;;3.80;3.20;;;;;;;20.50;100.00;100323.03;4905139;29;20526;-75
2021/05/20 09:34:36;;;;;;;4.70;2.97;;;;;;;19.79;100.00;100330.16;4917599;29;20032;-75
2021/05/20 09:37:22;;;;;;;3.92;2.55;;;;;;;19.82;100.00;100334.44;4905306;29;20024;-76
2021/05/20 09:40:08;;;;;;;3.88;2.50;;;;;;;19.85;100.00;100336.91;4904842;29;20036;-75
2021/05/20 09:42:55;;;;;;;3.38;2.78;;;;;;;20.03;100.00;100336.63;4917638;29;20036;-76
2021/05/20 09:45:41;;;;;;;3.05;2.47;;;;;;;19.59;100.00;100341.16;4917802;29;20478;-76
2021/05/20 09:48:35;;;;;;;2.42;2.22;;;;;;;19.71;100.00;100339.53;4904786;29;20039;-75
2021/05/20 09:51:31;;;;;;;3.92;3.00;;;;;;;19.42;100.00;100343.97;4917301;29;20499;-76
2021/05/20 09:54:43;;;;;;;3.78;3.10;;;;;;;18.60;100.00;100346.97;4917356;29;20032;-76
2021/05/20 09:57:34;;;;;;;5.07;3.90;;;;;;;18.54;100.00;100350.00;4918307;29;20039;-75
2021/05/20 10:00:23;;;;;;;3.83;3.38;;;;;;;19.33;100.00;100354.28;4917492;29;20475;-75
2021/05/20 10:03:11;;;;;;;4.05;3.63;;;;;;;19.06;100.00;100354.88;4904801;29;20040;-75
2021/05/20 10:05:59;;;;;;;4.25;3.10;;;;;;;18.20;100.00;100358.03;4917721;29;20027;-75
2021/05/20 10:09:09;;;;;;;6.28;3.47;;;;;;;18.11;100.00;100358.53;4917464;29;20087;-76
2021/05/20 10:11:56;;;;;;;4.13;3.33;;;;;;;18.38;100.00;100359.72;4904608;29;20062;-77
2021/05/20 10:14:47;;;;;;;3.53;3.22;;;;;;;18.57;100.00;100363.09;4908944;29;20040;-75
2021/05/20 10:17:36;;;;;;;4.72;3.30;;;;;;;18.62;100.00;100366.34;4908891;29;20024;-76
2021/05/20 10:20:22;;;;;;;4.68;3.60;;;;;;;18.31;100.00;100371.56;4909307;29;20438;-75
2021/05/20 10:23:19;;;;;;;4.32;3.72;;;;;;;18.15;100.00;100382.16;4908445;29;20028;-75
2021/05/20 10:26:08;;;;;;;8.27;4.35;;;;;;;17.66;100.00;100393.63;4908904;29;20437;-75
2021/05/20 10:28:53;;;;;;;7.03;4.57;;;;;;;17.45;100.00;100392.06;4921173;29;20028;-75
2021/05/20 10:31:43;;;;;;;6.55;4.13;;;;;;;16.76;100.00;100414.00;4908590;29;20024;-77
2021/05/20 10:34:28;;;;;;;5.82;3.65;;;;;;;16.05;100.00;100412.94;4908544;29;20358;-74
2021/05/20 10:37:25;;;;;;;8.80;4.88;;;;;;;16.48;100.00;100418.88;4921228;29;20116;-74
2021/05/20 10:40:12;;;;;;;6.53;5.07;;;;;;;16.91;100.00;100420.34;4908310;29;20369;-72
2021/05/20 10:43:10;;;;;;;7.22;5.78;;;;;;;16.63;100.00;100420.81;4908266;29;20040;-74
2021/05/20 10:46:14;;;;;;;8.43;6.70;;;;;;;16.75;100.00;100430.81;4908318;29;20032;-76
2021/05/20 10:49:17;;;;;;;10.30;6.55;;;;;;;16.68;100.00;100432.03;4907938;29;20047;-77
2021/05/20 10:52:35;;;;;;;6.03;3.00;;;;;;;16.20;100.00;100444.81;4920673;29;20016;-73
2021/05/20 10:55:36;;;;;;;2.63;2.28;;;;;;;15.91;100.00;100447.03;4920938;29;20068;-73
2021/05/20 10:58:35;;;;;;;3.50;2.60;;;;;;;15.40;100.00;100457.16;4920396;29;20028;-73
2021/05/20 11:01:21;;;;;;;6.60;3.00;;;;;;;15.83;100.00;100454.44;4920419;29;20473;-74
2021/05/20 11:04:09;;;;;;;5.05;3.70;;;;;;;15.71;100.00;100461.09;4921022;29;20039;-76
2021/05/20 11:06:59;;;;;;;6.22;3.72;;;;;;;15.75;100.00;100467.13;4906093;29;20035;-75
2021/05/20 11:09:50;;;;;;;4.47;4.00;;;;;;;15.88;100.00;100452.44;4907524;29;20071;-77
2021/05/20 11:12:54;;;;;;;6.18;5.00;;;;;;;15.85;100.00;100460.50;4908354;29;20091;-76
2021/05/20 11:16:18;;;;;;;7.53;5.18;;;;;;;16.28;100.00;100458.53;4921334;29;20047;-78
2021/05/20 11:19:30;;;;;;;7.38;4.78;;;;;;;16.52;100.00;100462.75;4920285;29;20039;-74
2021/05/20 11:22:16;;;;;;;7.15;6.03;;;;;;;16.64;100.00;100461.34;4920309;29;20028;-75
2021/05/20 11:25:09;;;;;;;9.63;6.95;;;;;;;16.51;100.00;100466.34;4920759;29;20032;-75
2021/05/20 11:27:56;;;;;;;8.30;6.55;;;;;;;16.30;100.00;100464.63;4920750;29;20032;-74
2021/05/20 11:30:41;;;;;;;9.10;8.20;;;;;;;16.75;100.00;100464.34;4920243;29;20028;-77
2021/05/20 11:33:31;;;;;;;8.00;7.20;;;;;;;16.91;100.00;100455.63;4907693;29;20024;-76
2021/05/20 11:36:17;;;;;;;8.10;7.40;;;;;;;17.49;100.00;100456.34;4911470;29;20044;-76
2021/05/20 11:39:06;;;;;;;7.53;6.75;;;;;;;17.27;100.00;100456.50;4924765;29;20039;-77
2021/05/20 11:41:53;;;;;;;7.82;7.03;;;;;;;17.47;100.00;100460.84;4923457;29;20032;-77
2021/05/20 11:44:39;;;;;;;7.60;6.82;;;;;;;16.99;100.00;100453.47;4908598;29;20461;-76
2021/05/20 11:47:25;;;;;;;8.02;7.28;;;;;;;17.33;100.00;100456.19;4920393;29;20449;-77
2021/05/20 11:50:12;;;;;;;7.97;7.18;;;;;;;17.30;100.00;100448.41;4920167;29;20357;-77
2021/05/20 11:53:09;;;;;;;8.70;7.80;;;;;;;17.27;100.00;100448.56;4920396;29;20103;-77
2021/05/20 11:55:55;;;;;;;9.27;8.27;;;;;;;17.50;100.00;100445.69;4907218;29;20031;-75
2021/05/20 11:58:45;;;;;;;10.25;9.23;;;;;;;17.36;100.00;100449.91;4918730;29;20038;-74
2021/05/20 12:01:32;;;;;;;10.80;7.97;;;;;;;17.34;100.00;100449.13;4906625;29;20382;-76
2021/05/20 12:04:18;;;;;;;8.55;7.72;;;;;;;17.60;100.00;100452.22;4906445;29;20537;-75
2021/05/20 12:07:05;;;;;;;9.90;8.90;;;;;;;17.84;100.00;100447.50;4905943;29;20127;-74
2021/05/20 12:09:53;;;;;;;9.88;8.98;;;;;;;18.12;100.00;100432.69;4919557;29;20050;-75
2021/05/20 12:12:41;;;;;;;10.23;9.23;;;;;;;18.37;100.00;100442.91;4905076;29;20028;-76
2021/05/20 12:15:30;;;;;;;10.50;9.35;;;;;;;18.67;100.00;100433.28;4905256;29;20323;-76
2021/05/20 12:18:17;;;;;;;11.05;8.75;;;;;;;18.85;100.00;100434.94;4918973;29;20024;-76
2021/05/20 12:21:08;;;;;;;11.32;8.52;;;;;;;18.94;100.00;100437.06;4905691;29;20043;-76
2021/05/20 12:23:58;;;;;;;9.57;8.68;;;;;;;19.30;100.00;100429.69;4918826;29;20024;-76
2021/05/20 12:26:44;;;;;;;7.90;7.10;;;;;;;18.97;100.00;100431.59;4906266;29;20139;-75
2021/05/20 12:29:30;;;;;;;8.27;7.22;;;;;;;18.63;100.00;100426.41;4905948;29;20513;-75
2021/05/20 12:32:32;;;;;;;9.23;8.32;;;;;;;19.33;100.00;100433.97;4920303;29;20028;-76
2021/05/20 12:35:21;;;;;;;9.18;8.27;;;;;;;18.69;100.00;100436.72;4905600;29;20028;-75
2021/05/20 12:38:11;;;;;;;8.50;7.70;;;;;;;18.95;100.00;100433.47;4919336;29;20031;-75
2021/05/20 12:41:00;;;;;;;9.30;8.40;;;;;;;19.10;100.00;100437.91;4918606;29;20507;-75
2021/05/20 12:43:45;;;;;;;9.85;8.85;;;;;;;19.22;100.00;100438.06;4905969;29;20028;-76
2021/05/20 12:46:31;;;;;;;9.13;8.20;;;;;;;18.60;100.00;100438.06;4918510;29;20039;-75
2021/05/20 12:49:22;;;;;;;10.55;9.18;;;;;;;18.53;100.00;100436.69;4918537;29;20032;-75
2021/05/20 12:52:07;;;;;;;9.25;8.35;;;;;;;19.03;100.00;100431.22;4905515;29;20035;-76
2021/05/20 12:55:06;;;;;;;8.60;7.80;;;;;;;18.63;100.00;100439.69;4905060;29;20466;-73